sensor_id;sensor_type;location;lat;lon;timestamp;P1;durP1;ratioP1;P2;durP2;ratioP2
39400;SDS011;75540;50.000;7.360;2024-01-30T00:00:27;20.33;;;10.13;;
39400;SDS011;75540;50.000;7.360;2024-01-30T00:02:55;17.45;;;9.73;;
39400;SDS011;75540;50.000;7.360;2024-01-30T00:05:23;18.63;;;9.23;;
39400;SDS011;75540;50.000;7.360;2024-01-30T00:07:52;18.17;;;9.80;;
39400;SDS011;75540;50.000;7.360;2024-01-30T00:10:20;20.73;;;9.82;;
39400;SDS011;75540;50.000;7.360;2024-01-30T00:12:49;15.15;;;9.48;;
39400;SDS011;75540;50.000;7.360;2024-01-30T00:15:17;19.40;;;10.13;;
39400;SDS011;75540;50.000;7.360;2024-01-30T00:17:47;16.58;;;10.15;;
39400;SDS011;75540;50.000;7.360;2024-01-30T00:20:15;16.90;;;9.55;;
39400;SDS011;75540;50.000;7.360;2024-01-30T00:22:44;17.92;;;10.05;;
39400;SDS011;75540;50.000;7.360;2024-01-30T00:25:12;16.10;;;9.48;;
39400;SDS011;75540;50.000;7.360;2024-01-30T00:27:41;16.13;;;9.20;;
39400;SDS011;75540;50.000;7.360;2024-01-30T00:30:10;18.88;;;9.90;;
39400;SDS011;75540;50.000;7.360;2024-01-30T00:32:39;14.27;;;9.30;;
39400;SDS011;75540;50.000;7.360;2024-01-30T00:35:09;15.32;;;9.32;;
39400;SDS011;75540;50.000;7.360;2024-01-30T00:37:37;15.60;;;8.40;;
39400;SDS011;75540;50.000;7.360;2024-01-30T00:40:06;17.25;;;9.50;;
39400;SDS011;75540;50.000;7.360;2024-01-30T00:42:37;16.98;;;9.45;;
39400;SDS011;75540;50.000;7.360;2024-01-30T00:45:05;17.30;;;9.73;;
39400;SDS011;75540;50.000;7.360;2024-01-30T00:47:34;20.02;;;9.88;;
39400;SDS011;75540;50.000;7.360;2024-01-30T00:50:02;18.90;;;9.68;;
39400;SDS011;75540;50.000;7.360;2024-01-30T00:52:33;17.65;;;9.60;;
39400;SDS011;75540;50.000;7.360;2024-01-30T00:55:01;16.92;;;8.98;;
39400;SDS011;75540;50.000;7.360;2024-01-30T00:57:30;14.90;;;8.57;;
39400;SDS011;75540;50.000;7.360;2024-01-30T00:59:58;14.90;;;9.20;;
39400;SDS011;75540;50.000;7.360;2024-01-30T01:02:27;14.20;;;9.02;;
39400;SDS011;75540;50.000;7.360;2024-01-30T01:04:55;17.20;;;8.55;;
39400;SDS011;75540;50.000;7.360;2024-01-30T01:07:23;12.52;;;7.82;;
39400;SDS011;75540;50.000;7.360;2024-01-30T01:09:53;17.52;;;8.40;;
39400;SDS011;75540;50.000;7.360;2024-01-30T01:12:21;12.52;;;7.38;;
39400;SDS011;75540;50.000;7.360;2024-01-30T01:14:50;14.45;;;7.90;;
39400;SDS011;75540;50.000;7.360;2024-01-30T01:17:18;14.60;;;7.57;;
39400;SDS011;75540;50.000;7.360;2024-01-30T01:19:46;17.45;;;8.90;;
39400;SDS011;75540;50.000;7.360;2024-01-30T01:22:15;15.00;;;7.55;;
39400;SDS011;75540;50.000;7.360;2024-01-30T01:24:45;14.60;;;8.48;;
39400;SDS011;75540;50.000;7.360;2024-01-30T01:27:15;17.02;;;8.95;;
39400;SDS011;75540;50.000;7.360;2024-01-30T01:29:43;12.13;;;7.63;;
39400;SDS011;75540;50.000;7.360;2024-01-30T01:32:12;12.70;;;7.93;;
39400;SDS011;75540;50.000;7.360;2024-01-30T01:34:40;14.52;;;7.57;;
39400;SDS011;75540;50.000;7.360;2024-01-30T01:37:09;12.55;;;7.15;;
39400;SDS011;75540;50.000;7.360;2024-01-30T01:39:38;11.82;;;6.68;;
39400;SDS011;75540;50.000;7.360;2024-01-30T01:42:06;14.30;;;6.63;;
39400;SDS011;75540;50.000;7.360;2024-01-30T01:44:36;13.40;;;6.63;;
39400;SDS011;75540;50.000;7.360;2024-01-30T01:47:04;10.25;;;6.53;;
39400;SDS011;75540;50.000;7.360;2024-01-30T01:49:33;13.25;;;7.03;;
39400;SDS011;75540;50.000;7.360;2024-01-30T01:52:02;15.30;;;7.13;;
39400;SDS011;75540;50.000;7.360;2024-01-30T01:54:30;12.27;;;7.28;;
39400;SDS011;75540;50.000;7.360;2024-01-30T01:56:59;13.82;;;7.80;;
39400;SDS011;75540;50.000;7.360;2024-01-30T01:59:28;11.50;;;7.40;;
39400;SDS011;75540;50.000;7.360;2024-01-30T02:01:58;12.20;;;6.85;;
39400;SDS011;75540;50.000;7.360;2024-01-30T02:04:26;12.85;;;7.35;;
39400;SDS011;75540;50.000;7.360;2024-01-30T02:06:55;11.40;;;6.55;;
39400;SDS011;75540;50.000;7.360;2024-01-30T02:09:23;12.52;;;6.30;;
39400;SDS011;75540;50.000;7.360;2024-01-30T02:11:52;11.55;;;7.00;;
39400;SDS011;75540;50.000;7.360;2024-01-30T02:14:20;13.15;;;6.60;;
39400;SDS011;75540;50.000;7.360;2024-01-30T02:16:48;12.10;;;7.25;;
39400;SDS011;75540;50.000;7.360;2024-01-30T02:19:18;14.30;;;6.65;;
39400;SDS011;75540;50.000;7.360;2024-01-30T02:21:48;14.07;;;6.82;;
39400;SDS011;75540;50.000;7.360;2024-01-30T02:24:18;14.63;;;7.13;;
39400;SDS011;75540;50.000;7.360;2024-01-30T02:26:46;11.23;;;6.60;;
39400;SDS011;75540;50.000;7.360;2024-01-30T02:29:14;11.98;;;7.18;;
39400;SDS011;75540;50.000;7.360;2024-01-30T02:31:42;10.13;;;6.10;;
39400;SDS011;75540;50.000;7.360;2024-01-30T02:34:13;15.68;;;7.38;;
39400;SDS011;75540;50.000;7.360;2024-01-30T02:36:42;12.63;;;7.15;;
39400;SDS011;75540;50.000;7.360;2024-01-30T02:39:12;11.68;;;7.10;;
39400;SDS011;75540;50.000;7.360;2024-01-30T02:41:40;13.02;;;6.75;;
39400;SDS011;75540;50.000;7.360;2024-01-30T02:44:08;13.07;;;7.00;;
39400;SDS011;75540;50.000;7.360;2024-01-30T02:46:37;11.23;;;6.32;;
39400;SDS011;75540;50.000;7.360;2024-01-30T02:49:05;14.43;;;7.70;;
39400;SDS011;75540;50.000;7.360;2024-01-30T02:51:34;13.02;;;6.97;;
39400;SDS011;75540;50.000;7.360;2024-01-30T02:54:02;14.60;;;7.57;;
39400;SDS011;75540;50.000;7.360;2024-01-30T02:56:32;13.38;;;6.85;;
39400;SDS011;75540;50.000;7.360;2024-01-30T02:59:00;13.70;;;6.78;;
39400;SDS011;75540;50.000;7.360;2024-01-30T03:01:28;12.05;;;6.13;;
39400;SDS011;75540;50.000;7.360;2024-01-30T03:03:58;13.15;;;6.82;;
39400;SDS011;75540;50.000;7.360;2024-01-30T03:06:26;13.80;;;6.45;;
39400;SDS011;75540;50.000;7.360;2024-01-30T03:08:55;12.68;;;7.03;;
39400;SDS011;75540;50.000;7.360;2024-01-30T03:11:23;13.65;;;7.57;;
39400;SDS011;75540;50.000;7.360;2024-01-30T03:13:53;10.77;;;6.32;;
39400;SDS011;75540;50.000;7.360;2024-01-30T03:16:21;12.25;;;6.55;;
39400;SDS011;75540;50.000;7.360;2024-01-30T03:18:50;10.68;;;6.10;;
39400;SDS011;75540;50.000;7.360;2024-01-30T03:21:18;11.35;;;6.60;;
39400;SDS011;75540;50.000;7.360;2024-01-30T03:23:46;13.18;;;6.50;;
39400;SDS011;75540;50.000;7.360;2024-01-30T03:26:15;14.93;;;7.60;;
39400;SDS011;75540;50.000;7.360;2024-01-30T03:28:43;13.38;;;7.40;;
39400;SDS011;75540;50.000;7.360;2024-01-30T03:31:14;13.57;;;7.53;;
39400;SDS011;75540;50.000;7.360;2024-01-30T03:33:43;16.00;;;7.28;;
39400;SDS011;75540;50.000;7.360;2024-01-30T03:36:12;12.38;;;7.57;;
39400;SDS011;75540;50.000;7.360;2024-01-30T03:38:40;13.25;;;6.80;;
39400;SDS011;75540;50.000;7.360;2024-01-30T03:41:08;14.02;;;7.35;;
39400;SDS011;75540;50.000;7.360;2024-01-30T03:43:37;11.63;;;7.28;;
39400;SDS011;75540;50.000;7.360;2024-01-30T03:46:05;13.50;;;7.57;;
39400;SDS011;75540;50.000;7.360;2024-01-30T03:48:35;13.32;;;7.03;;
39400;SDS011;75540;50.000;7.360;2024-01-30T03:51:04;15.88;;;8.32;;
39400;SDS011;75540;50.000;7.360;2024-01-30T03:53:32;16.58;;;7.95;;
39400;SDS011;75540;50.000;7.360;2024-01-30T03:56:00;14.65;;;8.18;;
39400;SDS011;75540;50.000;7.360;2024-01-30T03:58:29;14.60;;;7.55;;
39400;SDS011;75540;50.000;7.360;2024-01-30T04:00:58;14.70;;;7.03;;
39400;SDS011;75540;50.000;7.360;2024-01-30T04:03:26;14.77;;;7.38;;
39400;SDS011;75540;50.000;7.360;2024-01-30T04:05:56;12.82;;;6.00;;
39400;SDS011;75540;50.000;7.360;2024-01-30T04:08:25;12.77;;;6.15;;
39400;SDS011;75540;50.000;7.360;2024-01-30T04:10:53;11.52;;;6.43;;
39400;SDS011;75540;50.000;7.360;2024-01-30T04:13:21;10.93;;;6.43;;
39400;SDS011;75540;50.000;7.360;2024-01-30T04:15:50;12.00;;;5.85;;
39400;SDS011;75540;50.000;7.360;2024-01-30T04:18:18;13.48;;;6.45;;
39400;SDS011;75540;50.000;7.360;2024-01-30T04:20:47;11.27;;;6.18;;
39400;SDS011;75540;50.000;7.360;2024-01-30T04:23:17;9.27;;;5.90;;
39400;SDS011;75540;50.000;7.360;2024-01-30T04:25:45;12.85;;;5.72;;
39400;SDS011;75540;50.000;7.360;2024-01-30T04:28:13;11.50;;;6.10;;
39400;SDS011;75540;50.000;7.360;2024-01-30T04:30:42;11.77;;;6.50;;
39400;SDS011;75540;50.000;7.360;2024-01-30T04:33:10;11.20;;;6.57;;
39400;SDS011;75540;50.000;7.360;2024-01-30T04:35:39;9.93;;;6.13;;
39400;SDS011;75540;50.000;7.360;2024-01-30T04:38:07;14.73;;;7.43;;
39400;SDS011;75540;50.000;7.360;2024-01-30T04:40:37;10.40;;;5.93;;
39400;SDS011;75540;50.000;7.360;2024-01-30T04:43:05;10.77;;;6.53;;
39400;SDS011;75540;50.000;7.360;2024-01-30T04:45:33;9.25;;;6.07;;
39400;SDS011;75540;50.000;7.360;2024-01-30T04:48:02;12.25;;;5.82;;
39400;SDS011;75540;50.000;7.360;2024-01-30T04:50:31;11.38;;;6.00;;
39400;SDS011;75540;50.000;7.360;2024-01-30T04:52:59;11.30;;;6.13;;
39400;SDS011;75540;50.000;7.360;2024-01-30T04:55:27;9.30;;;5.70;;
39400;SDS011;75540;50.000;7.360;2024-01-30T04:57:57;10.80;;;6.35;;
39400;SDS011;75540;50.000;7.360;2024-01-30T05:00:25;9.93;;;5.72;;
39400;SDS011;75540;50.000;7.360;2024-01-30T05:02:54;11.85;;;5.63;;
39400;SDS011;75540;50.000;7.360;2024-01-30T05:05:23;10.65;;;6.35;;
39400;SDS011;75540;50.000;7.360;2024-01-30T05:07:51;12.10;;;5.95;;
39400;SDS011;75540;50.000;7.360;2024-01-30T05:10:19;9.40;;;5.43;;
39400;SDS011;75540;50.000;7.360;2024-01-30T05:12:48;9.88;;;6.07;;
39400;SDS011;75540;50.000;7.360;2024-01-30T05:15:17;8.68;;;5.22;;
39400;SDS011;75540;50.000;7.360;2024-01-30T05:17:46;10.13;;;5.82;;
39400;SDS011;75540;50.000;7.360;2024-01-30T05:20:16;11.70;;;6.55;;
39400;SDS011;75540;50.000;7.360;2024-01-30T05:22:45;9.30;;;5.38;;
39400;SDS011;75540;50.000;7.360;2024-01-30T05:25:13;11.18;;;5.85;;
39400;SDS011;75540;50.000;7.360;2024-01-30T05:27:42;10.30;;;5.55;;
39400;SDS011;75540;50.000;7.360;2024-01-30T05:30:10;10.27;;;6.05;;
39400;SDS011;75540;50.000;7.360;2024-01-30T05:32:40;10.68;;;6.18;;
39400;SDS011;75540;50.000;7.360;2024-01-30T05:35:09;13.15;;;6.05;;
39400;SDS011;75540;50.000;7.360;2024-01-30T05:37:37;11.80;;;6.45;;
39400;SDS011;75540;50.000;7.360;2024-01-30T05:40:06;11.73;;;5.90;;
39400;SDS011;75540;50.000;7.360;2024-01-30T05:42:35;11.55;;;5.97;;
39400;SDS011;75540;50.000;7.360;2024-01-30T05:45:04;13.45;;;6.22;;
39400;SDS011;75540;50.000;7.360;2024-01-30T05:47:33;11.85;;;6.80;;
39400;SDS011;75540;50.000;7.360;2024-01-30T05:50:03;11.38;;;6.50;;
39400;SDS011;75540;50.000;7.360;2024-01-30T05:52:31;9.88;;;6.07;;
39400;SDS011;75540;50.000;7.360;2024-01-30T05:55:00;13.82;;;6.68;;
39400;SDS011;75540;50.000;7.360;2024-01-30T05:57:29;10.05;;;5.65;;
39400;SDS011;75540;50.000;7.360;2024-01-30T05:59:57;10.48;;;5.47;;
39400;SDS011;75540;50.000;7.360;2024-01-30T06:02:26;10.02;;;5.90;;
39400;SDS011;75540;50.000;7.360;2024-01-30T06:04:54;9.43;;;6.07;;
39400;SDS011;75540;50.000;7.360;2024-01-30T06:07:24;12.77;;;5.90;;
39400;SDS011;75540;50.000;7.360;2024-01-30T06:09:52;10.75;;;5.95;;
39400;SDS011;75540;50.000;7.360;2024-01-30T06:12:21;9.82;;;5.57;;
39400;SDS011;75540;50.000;7.360;2024-01-30T06:14:49;9.98;;;6.40;;
39400;SDS011;75540;50.000;7.360;2024-01-30T06:17:17;11.95;;;6.25;;
39400;SDS011;75540;50.000;7.360;2024-01-30T06:19:46;11.30;;;5.72;;
39400;SDS011;75540;50.000;7.360;2024-01-30T06:22:14;10.45;;;5.78;;
39400;SDS011;75540;50.000;7.360;2024-01-30T06:24:45;10.25;;;5.88;;
39400;SDS011;75540;50.000;7.360;2024-01-30T06:27:14;12.95;;;6.35;;
39400;SDS011;75540;50.000;7.360;2024-01-30T06:29:44;12.00;;;6.70;;
39400;SDS011;75540;50.000;7.360;2024-01-30T06:32:12;12.90;;;6.28;;
39400;SDS011;75540;50.000;7.360;2024-01-30T06:34:41;13.23;;;6.88;;
39400;SDS011;75540;50.000;7.360;2024-01-30T06:37:11;9.57;;;6.05;;
39400;SDS011;75540;50.000;7.360;2024-01-30T06:39:39;11.60;;;6.55;;
39400;SDS011;75540;50.000;7.360;2024-01-30T06:42:09;10.27;;;6.43;;
39400;SDS011;75540;50.000;7.360;2024-01-30T06:44:38;11.02;;;6.70;;
39400;SDS011;75540;50.000;7.360;2024-01-30T06:47:06;10.45;;;6.70;;
39400;SDS011;75540;50.000;7.360;2024-01-30T06:49:35;10.38;;;5.57;;
39400;SDS011;75540;50.000;7.360;2024-01-30T06:52:05;9.98;;;5.68;;
39400;SDS011;75540;50.000;7.360;2024-01-30T06:54:34;11.13;;;5.90;;
39400;SDS011;75540;50.000;7.360;2024-01-30T06:57:03;9.80;;;5.82;;
39400;SDS011;75540;50.000;7.360;2024-01-30T06:59:35;12.57;;;6.55;;
39400;SDS011;75540;50.000;7.360;2024-01-30T07:02:03;11.00;;;6.10;;
39400;SDS011;75540;50.000;7.360;2024-01-30T07:04:32;11.05;;;5.90;;
39400;SDS011;75540;50.000;7.360;2024-01-30T07:07:00;10.18;;;5.70;;
39400;SDS011;75540;50.000;7.360;2024-01-30T07:09:32;9.18;;;5.60;;
39400;SDS011;75540;50.000;7.360;2024-01-30T07:12:01;15.57;;;6.28;;
39400;SDS011;75540;50.000;7.360;2024-01-30T07:14:29;12.88;;;5.97;;
39400;SDS011;75540;50.000;7.360;2024-01-30T07:16:59;11.77;;;6.03;;
39400;SDS011;75540;50.000;7.360;2024-01-30T07:19:27;10.25;;;6.22;;
39400;SDS011;75540;50.000;7.360;2024-01-30T07:21:56;12.02;;;6.53;;
39400;SDS011;75540;50.000;7.360;2024-01-30T07:24:24;12.45;;;6.30;;
39400;SDS011;75540;50.000;7.360;2024-01-30T07:26:53;13.60;;;6.70;;
39400;SDS011;75540;50.000;7.360;2024-01-30T07:29:21;11.38;;;6.50;;
39400;SDS011;75540;50.000;7.360;2024-01-30T07:31:50;10.15;;;6.10;;
39400;SDS011;75540;50.000;7.360;2024-01-30T07:34:19;11.45;;;5.72;;
39400;SDS011;75540;50.000;7.360;2024-01-30T07:36:48;9.32;;;5.65;;
39400;SDS011;75540;50.000;7.360;2024-01-30T07:39:19;11.13;;;6.22;;
39400;SDS011;75540;50.000;7.360;2024-01-30T07:41:48;11.10;;;5.72;;
39400;SDS011;75540;50.000;7.360;2024-01-30T07:44:16;10.10;;;6.20;;
39400;SDS011;75540;50.000;7.360;2024-01-30T07:46:45;9.18;;;5.40;;
39400;SDS011;75540;50.000;7.360;2024-01-30T07:49:13;13.13;;;5.57;;
39400;SDS011;75540;50.000;7.360;2024-01-30T07:51:43;9.85;;;5.28;;
39400;SDS011;75540;50.000;7.360;2024-01-30T07:54:13;13.20;;;5.97;;
39400;SDS011;75540;50.000;7.360;2024-01-30T07:56:41;10.93;;;6.22;;
39400;SDS011;75540;50.000;7.360;2024-01-30T07:59:09;10.25;;;6.18;;
39400;SDS011;75540;50.000;7.360;2024-01-30T08:01:38;9.57;;;6.10;;
39400;SDS011;75540;50.000;7.360;2024-01-30T08:04:07;7.70;;;4.72;;
39400;SDS011;75540;50.000;7.360;2024-01-30T08:06:35;8.95;;;5.00;;
39400;SDS011;75540;50.000;7.360;2024-01-30T08:09:07;9.07;;;5.30;;
39400;SDS011;75540;50.000;7.360;2024-01-30T08:11:36;9.00;;;5.10;;
39400;SDS011;75540;50.000;7.360;2024-01-30T08:14:04;8.48;;;4.88;;
39400;SDS011;75540;50.000;7.360;2024-01-30T08:16:33;10.88;;;6.45;;
39400;SDS011;75540;50.000;7.360;2024-01-30T08:19:01;9.80;;;6.05;;
39400;SDS011;75540;50.000;7.360;2024-01-30T08:21:30;11.20;;;5.32;;
39400;SDS011;75540;50.000;7.360;2024-01-30T08:24:05;10.57;;;6.55;;
39400;SDS011;75540;50.000;7.360;2024-01-30T08:26:36;13.32;;;6.20;;
39400;SDS011;75540;50.000;7.360;2024-01-30T08:29:05;9.35;;;5.85;;
39400;SDS011;75540;50.000;7.360;2024-01-30T08:31:34;12.82;;;6.15;;
39400;SDS011;75540;50.000;7.360;2024-01-30T08:34:03;9.77;;;6.28;;
39400;SDS011;75540;50.000;7.360;2024-01-30T08:36:31;11.75;;;6.35;;
39400;SDS011;75540;50.000;7.360;2024-01-30T08:38:59;8.75;;;5.00;;
39400;SDS011;75540;50.000;7.360;2024-01-30T08:41:33;10.38;;;5.25;;
39400;SDS011;75540;50.000;7.360;2024-01-30T08:44:01;10.45;;;5.35;;
39400;SDS011;75540;50.000;7.360;2024-01-30T08:46:31;11.77;;;5.75;;
39400;SDS011;75540;50.000;7.360;2024-01-30T08:49:00;9.77;;;5.55;;
39400;SDS011;75540;50.000;7.360;2024-01-30T08:51:29;8.27;;;5.30;;
39400;SDS011;75540;50.000;7.360;2024-01-30T08:53:58;10.90;;;5.53;;
39400;SDS011;75540;50.000;7.360;2024-01-30T08:56:26;12.43;;;5.68;;
39400;SDS011;75540;50.000;7.360;2024-01-30T08:58:56;10.50;;;6.25;;
39400;SDS011;75540;50.000;7.360;2024-01-30T09:01:25;10.85;;;5.50;;
39400;SDS011;75540;50.000;7.360;2024-01-30T09:03:54;12.85;;;6.15;;
39400;SDS011;75540;50.000;7.360;2024-01-30T09:06:23;10.05;;;5.90;;
39400;SDS011;75540;50.000;7.360;2024-01-30T09:08:53;9.25;;;5.35;;
39400;SDS011;75540;50.000;7.360;2024-01-30T09:11:21;11.45;;;6.25;;
39400;SDS011;75540;50.000;7.360;2024-01-30T09:13:50;11.35;;;6.90;;
39400;SDS011;75540;50.000;7.360;2024-01-30T09:16:19;8.93;;;5.75;;
39400;SDS011;75540;50.000;7.360;2024-01-30T09:18:48;11.57;;;5.82;;
39400;SDS011;75540;50.000;7.360;2024-01-30T09:21:16;10.50;;;6.20;;
39400;SDS011;75540;50.000;7.360;2024-01-30T09:23:45;10.02;;;5.95;;
39400;SDS011;75540;50.000;7.360;2024-01-30T09:26:13;11.27;;;6.90;;
39400;SDS011;75540;50.000;7.360;2024-01-30T09:28:42;10.00;;;5.75;;
39400;SDS011;75540;50.000;7.360;2024-01-30T09:31:10;7.95;;;5.07;;
39400;SDS011;75540;50.000;7.360;2024-01-30T09:33:40;10.80;;;5.32;;
39400;SDS011;75540;50.000;7.360;2024-01-30T09:36:10;8.45;;;4.90;;
39400;SDS011;75540;50.000;7.360;2024-01-30T09:38:41;10.55;;;6.15;;
39400;SDS011;75540;50.000;7.360;2024-01-30T09:41:10;9.30;;;5.45;;
39400;SDS011;75540;50.000;7.360;2024-01-30T09:43:39;11.25;;;6.50;;
39400;SDS011;75540;50.000;7.360;2024-01-30T09:46:10;11.15;;;6.32;;
39400;SDS011;75540;50.000;7.360;2024-01-30T09:48:42;12.88;;;6.68;;
39400;SDS011;75540;50.000;7.360;2024-01-30T09:54:07;10.63;;;5.90;;
39400;SDS011;75540;50.000;7.360;2024-01-30T09:56:37;9.20;;;6.00;;
39400;SDS011;75540;50.000;7.360;2024-01-30T09:59:06;10.60;;;5.72;;
39400;SDS011;75540;50.000;7.360;2024-01-30T10:01:35;10.32;;;5.22;;
39400;SDS011;75540;50.000;7.360;2024-01-30T10:04:06;12.82;;;6.53;;
39400;SDS011;75540;50.000;7.360;2024-01-30T10:06:35;12.23;;;6.07;;
39400;SDS011;75540;50.000;7.360;2024-01-30T10:09:04;16.42;;;8.35;;
39400;SDS011;75540;50.000;7.360;2024-01-30T10:11:33;10.00;;;6.25;;
39400;SDS011;75540;50.000;7.360;2024-01-30T10:14:01;13.38;;;6.20;;
39400;SDS011;75540;50.000;7.360;2024-01-30T10:16:30;10.32;;;5.93;;
39400;SDS011;75540;50.000;7.360;2024-01-30T10:18:58;13.63;;;6.97;;
39400;SDS011;75540;50.000;7.360;2024-01-30T10:21:28;14.35;;;7.55;;
39400;SDS011;75540;50.000;7.360;2024-01-30T10:23:57;13.05;;;7.22;;
39400;SDS011;75540;50.000;7.360;2024-01-30T10:26:26;15.60;;;7.65;;
39400;SDS011;75540;50.000;7.360;2024-01-30T10:28:55;15.35;;;9.35;;
39400;SDS011;75540;50.000;7.360;2024-01-30T10:31:24;10.93;;;6.80;;
39400;SDS011;75540;50.000;7.360;2024-01-30T10:33:53;9.77;;;6.15;;
39400;SDS011;75540;50.000;7.360;2024-01-30T10:36:39;13.90;;;6.40;;
39400;SDS011;75540;50.000;7.360;2024-01-30T10:39:09;14.02;;;6.97;;
39400;SDS011;75540;50.000;7.360;2024-01-30T10:41:39;10.60;;;6.13;;
39400;SDS011;75540;50.000;7.360;2024-01-30T10:44:11;10.70;;;6.38;;
39400;SDS011;75540;50.000;7.360;2024-01-30T10:46:43;11.18;;;6.57;;
39400;SDS011;75540;50.000;7.360;2024-01-30T10:49:17;10.93;;;6.40;;
39400;SDS011;75540;50.000;7.360;2024-01-30T10:51:47;14.15;;;7.07;;
39400;SDS011;75540;50.000;7.360;2024-01-30T10:54:18;10.48;;;6.20;;
39400;SDS011;75540;50.000;7.360;2024-01-30T10:56:48;10.88;;;6.60;;
39400;SDS011;75540;50.000;7.360;2024-01-30T10:59:17;13.38;;;6.93;;
39400;SDS011;75540;50.000;7.360;2024-01-30T11:01:46;10.38;;;5.80;;
39400;SDS011;75540;50.000;7.360;2024-01-30T11:04:17;11.98;;;5.63;;
39400;SDS011;75540;50.000;7.360;2024-01-30T11:06:46;11.07;;;6.53;;
39400;SDS011;75540;50.000;7.360;2024-01-30T11:09:22;12.60;;;7.15;;
39400;SDS011;75540;50.000;7.360;2024-01-30T11:11:51;13.13;;;6.63;;
39400;SDS011;75540;50.000;7.360;2024-01-30T11:16:57;11.27;;;5.90;;
39400;SDS011;75540;50.000;7.360;2024-01-30T11:19:26;9.65;;;5.53;;
39400;SDS011;75540;50.000;7.360;2024-01-30T11:21:57;11.93;;;6.20;;
39400;SDS011;75540;50.000;7.360;2024-01-30T11:24:25;10.18;;;6.03;;
39400;SDS011;75540;50.000;7.360;2024-01-30T11:26:55;10.13;;;5.95;;
39400;SDS011;75540;50.000;7.360;2024-01-30T11:29:25;9.27;;;5.60;;
39400;SDS011;75540;50.000;7.360;2024-01-30T11:31:55;11.23;;;5.53;;
39400;SDS011;75540;50.000;7.360;2024-01-30T11:34:25;13.48;;;6.13;;
39400;SDS011;75540;50.000;7.360;2024-01-30T11:36:55;9.07;;;6.10;;
39400;SDS011;75540;50.000;7.360;2024-01-30T11:39:27;11.38;;;6.00;;
39400;SDS011;75540;50.000;7.360;2024-01-30T11:41:57;9.60;;;6.00;;
39400;SDS011;75540;50.000;7.360;2024-01-30T11:44:26;10.95;;;5.25;;
39400;SDS011;75540;50.000;7.360;2024-01-30T11:46:55;11.45;;;6.20;;
39400;SDS011;75540;50.000;7.360;2024-01-30T11:49:24;8.60;;;5.40;;
39400;SDS011;75540;50.000;7.360;2024-01-30T11:51:52;9.82;;;5.55;;
39400;SDS011;75540;50.000;7.360;2024-01-30T11:54:22;8.07;;;5.47;;
39400;SDS011;75540;50.000;7.360;2024-01-30T11:56:51;9.13;;;4.85;;
39400;SDS011;75540;50.000;7.360;2024-01-30T11:59:19;11.38;;;5.90;;
39400;SDS011;75540;50.000;7.360;2024-01-30T12:01:47;10.48;;;5.85;;
39400;SDS011;75540;50.000;7.360;2024-01-30T12:04:16;9.23;;;5.50;;
39400;SDS011;75540;50.000;7.360;2024-01-30T12:06:45;9.88;;;5.35;;
39400;SDS011;75540;50.000;7.360;2024-01-30T12:09:18;12.30;;;5.70;;
39400;SDS011;75540;50.000;7.360;2024-01-30T12:11:49;10.23;;;5.55;;
39400;SDS011;75540;50.000;7.360;2024-01-30T12:14:18;11.98;;;6.55;;
39400;SDS011;75540;50.000;7.360;2024-01-30T12:16:49;11.07;;;6.22;;
39400;SDS011;75540;50.000;7.360;2024-01-30T12:19:21;12.43;;;6.15;;
39400;SDS011;75540;50.000;7.360;2024-01-30T12:21:59;11.85;;;6.05;;
39400;SDS011;75540;50.000;7.360;2024-01-30T12:24:27;10.05;;;6.55;;
39400;SDS011;75540;50.000;7.360;2024-01-30T12:27:00;13.23;;;6.75;;
39400;SDS011;75540;50.000;7.360;2024-01-30T12:29:31;12.07;;;6.15;;
39400;SDS011;75540;50.000;7.360;2024-01-30T12:32:04;9.73;;;5.80;;
39400;SDS011;75540;50.000;7.360;2024-01-30T12:34:33;10.98;;;6.18;;
39400;SDS011;75540;50.000;7.360;2024-01-30T12:37:15;12.23;;;6.55;;
39400;SDS011;75540;50.000;7.360;2024-01-30T12:39:48;10.50;;;6.03;;
39400;SDS011;75540;50.000;7.360;2024-01-30T12:42:18;14.68;;;7.28;;
39400;SDS011;75540;50.000;7.360;2024-01-30T12:44:47;15.25;;;7.93;;
39400;SDS011;75540;50.000;7.360;2024-01-30T12:47:16;13.05;;;5.85;;
39400;SDS011;75540;50.000;7.360;2024-01-30T12:49:44;9.75;;;5.10;;
39400;SDS011;75540;50.000;7.360;2024-01-30T12:52:13;10.93;;;5.97;;
39400;SDS011;75540;50.000;7.360;2024-01-30T12:54:43;9.95;;;5.65;;
39400;SDS011;75540;50.000;7.360;2024-01-30T12:57:12;9.80;;;5.22;;
39400;SDS011;75540;50.000;7.360;2024-01-30T12:59:41;8.32;;;5.38;;
39400;SDS011;75540;50.000;7.360;2024-01-30T13:02:11;10.38;;;4.97;;
39400;SDS011;75540;50.000;7.360;2024-01-30T13:04:41;8.88;;;5.05;;
39400;SDS011;75540;50.000;7.360;2024-01-30T13:07:15;8.32;;;4.55;;
39400;SDS011;75540;50.000;7.360;2024-01-30T13:09:44;10.68;;;4.82;;
39400;SDS011;75540;50.000;7.360;2024-01-30T13:12:12;8.20;;;5.25;;
39400;SDS011;75540;50.000;7.360;2024-01-30T13:14:42;9.50;;;5.07;;
39400;SDS011;75540;50.000;7.360;2024-01-30T13:17:10;8.15;;;4.78;;
39400;SDS011;75540;50.000;7.360;2024-01-30T13:19:39;8.10;;;4.70;;
39400;SDS011;75540;50.000;7.360;2024-01-30T13:22:14;8.55;;;5.38;;
39400;SDS011;75540;50.000;7.360;2024-01-30T13:24:42;10.80;;;5.90;;
39400;SDS011;75540;50.000;7.360;2024-01-30T13:27:10;10.07;;;5.15;;
39400;SDS011;75540;50.000;7.360;2024-01-30T13:29:39;11.13;;;5.47;;
39400;SDS011;75540;50.000;7.360;2024-01-30T13:32:09;8.93;;;5.13;;
39400;SDS011;75540;50.000;7.360;2024-01-30T13:34:37;10.45;;;5.32;;
39400;SDS011;75540;50.000;7.360;2024-01-30T13:37:07;10.40;;;5.40;;
39400;SDS011;75540;50.000;7.360;2024-01-30T13:39:35;8.70;;;4.57;;
39400;SDS011;75540;50.000;7.360;2024-01-30T13:42:05;11.88;;;4.70;;
39400;SDS011;75540;50.000;7.360;2024-01-30T13:44:34;9.35;;;4.88;;
39400;SDS011;75540;50.000;7.360;2024-01-30T13:47:03;8.75;;;5.50;;
39400;SDS011;75540;50.000;7.360;2024-01-30T13:49:33;9.50;;;5.18;;
39400;SDS011;75540;50.000;7.360;2024-01-30T13:52:03;10.15;;;5.13;;
39400;SDS011;75540;50.000;7.360;2024-01-30T13:54:31;9.48;;;5.47;;
39400;SDS011;75540;50.000;7.360;2024-01-30T13:57:00;11.85;;;5.75;;
39400;SDS011;75540;50.000;7.360;2024-01-30T13:59:32;8.52;;;5.25;;
39400;SDS011;75540;50.000;7.360;2024-01-30T14:02:00;11.55;;;5.25;;
39400;SDS011;75540;50.000;7.360;2024-01-30T14:04:29;9.77;;;4.93;;
39400;SDS011;75540;50.000;7.360;2024-01-30T14:06:59;7.53;;;4.82;;
39400;SDS011;75540;50.000;7.360;2024-01-30T14:09:31;10.73;;;6.05;;
39400;SDS011;75540;50.000;7.360;2024-01-30T14:12:00;10.15;;;7.18;;
39400;SDS011;75540;50.000;7.360;2024-01-30T14:14:29;13.07;;;7.00;;
39400;SDS011;75540;50.000;7.360;2024-01-30T14:16:58;10.63;;;6.93;;
39400;SDS011;75540;50.000;7.360;2024-01-30T14:19:27;9.30;;;5.60;;
39400;SDS011;75540;50.000;7.360;2024-01-30T14:21:55;13.43;;;6.28;;
39400;SDS011;75540;50.000;7.360;2024-01-30T14:24:25;10.68;;;5.30;;
39400;SDS011;75540;50.000;7.360;2024-01-30T14:26:53;9.27;;;4.90;;
39400;SDS011;75540;50.000;7.360;2024-01-30T14:29:22;7.40;;;4.57;;
39400;SDS011;75540;50.000;7.360;2024-01-30T14:31:50;9.32;;;4.93;;
39400;SDS011;75540;50.000;7.360;2024-01-30T14:34:18;6.88;;;4.60;;
39400;SDS011;75540;50.000;7.360;2024-01-30T14:36:47;9.68;;;5.35;;
39400;SDS011;75540;50.000;7.360;2024-01-30T14:39:15;8.88;;;4.78;;
39400;SDS011;75540;50.000;7.360;2024-01-30T14:41:46;11.45;;;5.53;;
39400;SDS011;75540;50.000;7.360;2024-01-30T14:44:14;8.60;;;4.32;;
39400;SDS011;75540;50.000;7.360;2024-01-30T14:46:43;8.32;;;5.28;;
39400;SDS011;75540;50.000;7.360;2024-01-30T14:49:13;8.35;;;5.30;;
39400;SDS011;75540;50.000;7.360;2024-01-30T14:51:42;8.18;;;5.15;;
39400;SDS011;75540;50.000;7.360;2024-01-30T14:54:13;11.02;;;5.00;;